sensor_id;sensor_type;location;lat;lon;timestamp;P1;durP1;ratioP1;P2;durP2;ratioP2
32196;SDS011;18697;42.770;23.400;2023-02-04T00:00:43;4.93;;;4.43;;
32196;SDS011;18697;42.770;23.400;2023-02-04T00:03:10;5.70;;;4.35;;
32196;SDS011;18697;42.770;23.400;2023-02-04T00:05:36;6.70;;;4.60;;
32196;SDS011;18697;42.770;23.400;2023-02-04T00:08:02;8.80;;;4.97;;
32196;SDS011;18697;42.770;23.400;2023-02-04T00:10:28;7.53;;;5.40;;
32196;SDS011;18697;42.770;23.400;2023-02-04T00:12:53;12.77;;;6.40;;
32196;SDS011;18697;42.770;23.400;2023-02-04T00:15:18;11.38;;;5.75;;
32196;SDS011;18697;42.770;23.400;2023-02-04T00:17:44;8.68;;;5.00;;
32196;SDS011;18697;42.770;23.400;2023-02-04T00:20:09;10.82;;;5.13;;
32196;SDS011;18697;42.770;23.400;2023-02-04T00:22:35;8.63;;;4.63;;
32196;SDS011;18697;42.770;23.400;2023-02-04T00:25:03;7.05;;;5.35;;
32196;SDS011;18697;42.770;23.400;2023-02-04T00:27:29;6.57;;;4.72;;
32196;SDS011;18697;42.770;23.400;2023-02-04T00:29:55;5.82;;;4.82;;
32196;SDS011;18697;42.770;23.400;2023-02-04T00:32:21;6.75;;;5.05;;
32196;SDS011;18697;42.770;23.400;2023-02-04T00:34:46;7.88;;;5.13;;
32196;SDS011;18697;42.770;23.400;2023-02-04T00:37:12;9.35;;;4.80;;
32196;SDS011;18697;42.770;23.400;2023-02-04T00:39:37;7.55;;;5.15;;
32196;SDS011;18697;42.770;23.400;2023-02-04T00:42:03;6.82;;;5.15;;
32196;SDS011;18697;42.770;23.400;2023-02-04T00:44:29;10.90;;;4.47;;
32196;SDS011;18697;42.770;23.400;2023-02-04T00:46:55;10.25;;;4.90;;
32196;SDS011;18697;42.770;23.400;2023-02-04T00:49:21;9.48;;;4.68;;
32196;SDS011;18697;42.770;23.400;2023-02-04T00:51:46;7.43;;;4.75;;
32196;SDS011;18697;42.770;23.400;2023-02-04T00:54:12;6.82;;;4.53;;
32196;SDS011;18697;42.770;23.400;2023-02-04T00:56:39;7.75;;;4.60;;
32196;SDS011;18697;42.770;23.400;2023-02-04T00:59:05;7.07;;;4.53;;
32196;SDS011;18697;42.770;23.400;2023-02-04T01:01:30;7.30;;;4.28;;
32196;SDS011;18697;42.770;23.400;2023-02-04T01:03:56;9.23;;;4.82;;
32196;SDS011;18697;42.770;23.400;2023-02-04T01:06:21;6.32;;;4.75;;
32196;SDS011;18697;42.770;23.400;2023-02-04T01:08:46;7.43;;;4.82;;
32196;SDS011;18697;42.770;23.400;2023-02-04T01:11:12;7.05;;;4.30;;
32196;SDS011;18697;42.770;23.400;2023-02-04T01:13:37;7.50;;;4.55;;
32196;SDS011;18697;42.770;23.400;2023-02-04T01:16:03;5.40;;;4.15;;
32196;SDS011;18697;42.770;23.400;2023-02-04T01:18:28;4.55;;;4.07;;
32196;SDS011;18697;42.770;23.400;2023-02-04T01:20:54;9.40;;;3.50;;
32196;SDS011;18697;42.770;23.400;2023-02-04T01:23:19;8.52;;;4.00;;
32196;SDS011;18697;42.770;23.400;2023-02-04T01:25:44;8.85;;;4.13;;
32196;SDS011;18697;42.770;23.400;2023-02-04T01:28:10;7.20;;;4.30;;
32196;SDS011;18697;42.770;23.400;2023-02-04T01:30:35;5.53;;;4.38;;
32196;SDS011;18697;42.770;23.400;2023-02-04T01:33:01;8.85;;;4.00;;
32196;SDS011;18697;42.770;23.400;2023-02-04T01:35:26;6.50;;;4.22;;
32196;SDS011;18697;42.770;23.400;2023-02-04T01:37:51;12.55;;;4.60;;
32196;SDS011;18697;42.770;23.400;2023-02-04T01:40:17;9.43;;;3.95;;
32196;SDS011;18697;42.770;23.400;2023-02-04T01:42:42;5.45;;;4.15;;
32196;SDS011;18697;42.770;23.400;2023-02-04T01:45:08;6.40;;;4.35;;
32196;SDS011;18697;42.770;23.400;2023-02-04T01:47:34;6.60;;;4.35;;
32196;SDS011;18697;42.770;23.400;2023-02-04T01:50:00;9.13;;;4.57;;
32196;SDS011;18697;42.770;23.400;2023-02-04T01:52:27;5.03;;;4.50;;
32196;SDS011;18697;42.770;23.400;2023-02-04T01:54:58;9.27;;;4.60;;
32196;SDS011;18697;42.770;23.400;2023-02-04T01:57:24;7.65;;;4.57;;
32196;SDS011;18697;42.770;23.400;2023-02-04T01:59:49;12.32;;;4.95;;
32196;SDS011;18697;42.770;23.400;2023-02-04T02:05:04;9.37;;;4.63;;
32196;SDS011;18697;42.770;23.400;2023-02-04T02:07:31;5.07;;;4.25;;
32196;SDS011;18697;42.770;23.400;2023-02-04T02:09:56;7.47;;;4.18;;
32196;SDS011;18697;42.770;23.400;2023-02-04T02:12:21;13.10;;;5.30;;
32196;SDS011;18697;42.770;23.400;2023-02-04T02:14:47;14.52;;;4.93;;
32196;SDS011;18697;42.770;23.400;2023-02-04T02:17:12;6.57;;;3.95;;
32196;SDS011;18697;42.770;23.400;2023-02-04T02:19:37;14.13;;;4.30;;
32196;SDS011;18697;42.770;23.400;2023-02-04T02:22:06;7.07;;;4.35;;
32196;SDS011;18697;42.770;23.400;2023-02-04T02:24:39;8.15;;;4.13;;
32196;SDS011;18697;42.770;23.400;2023-02-04T02:27:05;10.18;;;4.30;;
32196;SDS011;18697;42.770;23.400;2023-02-04T02:29:33;7.85;;;3.70;;
32196;SDS011;18697;42.770;23.400;2023-02-04T02:31:59;5.75;;;3.70;;
32196;SDS011;18697;42.770;23.400;2023-02-04T02:34:25;10.13;;;4.13;;
32196;SDS011;18697;42.770;23.400;2023-02-04T02:36:52;11.40;;;4.30;;
32196;SDS011;18697;42.770;23.400;2023-02-04T02:39:18;5.53;;;3.78;;
32196;SDS011;18697;42.770;23.400;2023-02-04T02:41:44;7.25;;;3.95;;
32196;SDS011;18697;42.770;23.400;2023-02-04T02:44:10;11.18;;;3.95;;
32196;SDS011;18697;42.770;23.400;2023-02-04T02:46:37;14.00;;;4.70;;
32196;SDS011;18697;42.770;23.400;2023-02-04T02:49:03;11.80;;;3.97;;
32196;SDS011;18697;42.770;23.400;2023-02-04T02:51:28;4.95;;;4.20;;
32196;SDS011;18697;42.770;23.400;2023-02-04T02:53:55;4.55;;;3.65;;
32196;SDS011;18697;42.770;23.400;2023-02-04T02:56:21;8.43;;;3.67;;
32196;SDS011;18697;42.770;23.400;2023-02-04T02:58:47;7.38;;;3.67;;
32196;SDS011;18697;42.770;23.400;2023-02-04T03:01:12;9.07;;;4.03;;
32196;SDS011;18697;42.770;23.400;2023-02-04T03:03:48;9.68;;;3.80;;
32196;SDS011;18697;42.770;23.400;2023-02-04T03:06:16;6.43;;;3.50;;
32196;SDS011;18697;42.770;23.400;2023-02-04T03:08:48;6.25;;;3.60;;
32196;SDS011;18697;42.770;23.400;2023-02-04T03:11:15;6.20;;;3.50;;
32196;SDS011;18697;42.770;23.400;2023-02-04T03:13:41;3.92;;;3.40;;
32196;SDS011;18697;42.770;23.400;2023-02-04T03:16:07;3.90;;;3.50;;
32196;SDS011;18697;42.770;23.400;2023-02-04T03:18:32;5.75;;;4.03;;
32196;SDS011;18697;42.770;23.400;2023-02-04T03:21:00;5.68;;;4.30;;
32196;SDS011;18697;42.770;23.400;2023-02-04T03:23:26;5.40;;;3.95;;
32196;SDS011;18697;42.770;23.400;2023-02-04T03:25:52;5.55;;;3.88;;
32196;SDS011;18697;42.770;23.400;2023-02-04T03:28:18;4.55;;;4.10;;
32196;SDS011;18697;42.770;23.400;2023-02-04T03:30:43;7.63;;;4.20;;
32196;SDS011;18697;42.770;23.400;2023-02-04T03:33:08;6.32;;;4.75;;
32196;SDS011;18697;42.770;23.400;2023-02-04T03:35:34;6.63;;;4.35;;
32196;SDS011;18697;42.770;23.400;2023-02-04T03:37:59;5.03;;;4.05;;
32196;SDS011;18697;42.770;23.400;2023-02-04T03:40:25;6.10;;;4.05;;
32196;SDS011;18697;42.770;23.400;2023-02-04T03:42:50;3.72;;;3.28;;
32196;SDS011;18697;42.770;23.400;2023-02-04T03:45:15;10.75;;;4.93;;
32196;SDS011;18697;42.770;23.400;2023-02-04T03:47:41;6.97;;;4.07;;
32196;SDS011;18697;42.770;23.400;2023-02-04T03:50:06;6.85;;;4.18;;
32196;SDS011;18697;42.770;23.400;2023-02-04T03:52:32;8.80;;;4.28;;
32196;SDS011;18697;42.770;23.400;2023-02-04T03:54:57;4.28;;;3.90;;
32196;SDS011;18697;42.770;23.400;2023-02-04T03:57:22;4.68;;;3.58;;
32196;SDS011;18697;42.770;23.400;2023-02-04T03:59:48;6.25;;;4.13;;
32196;SDS011;18697;42.770;23.400;2023-02-04T04:02:13;6.10;;;3.47;;
32196;SDS011;18697;42.770;23.400;2023-02-04T04:04:38;7.63;;;4.53;;
32196;SDS011;18697;42.770;23.400;2023-02-04T04:07:04;6.85;;;3.70;;
32196;SDS011;18697;42.770;23.400;2023-02-04T04:09:30;8.07;;;4.50;;
32196;SDS011;18697;42.770;23.400;2023-02-04T04:11:55;6.18;;;3.92;;
32196;SDS011;18697;42.770;23.400;2023-02-04T04:14:20;7.82;;;3.95;;
32196;SDS011;18697;42.770;23.400;2023-02-04T04:16:46;6.63;;;3.55;;
32196;SDS011;18697;42.770;23.400;2023-02-04T04:19:11;4.72;;;3.72;;
32196;SDS011;18697;42.770;23.400;2023-02-04T04:21:36;6.97;;;4.25;;
32196;SDS011;18697;42.770;23.400;2023-02-04T04:24:02;4.68;;;3.58;;
32196;SDS011;18697;42.770;23.400;2023-02-04T04:26:27;9.57;;;3.85;;
32196;SDS011;18697;42.770;23.400;2023-02-04T04:28:53;7.03;;;3.67;;
32196;SDS011;18697;42.770;23.400;2023-02-04T04:31:18;6.28;;;3.60;;
32196;SDS011;18697;42.770;23.400;2023-02-04T04:33:43;5.90;;;4.35;;
32196;SDS011;18697;42.770;23.400;2023-02-04T04:36:09;6.25;;;4.13;;
32196;SDS011;18697;42.770;23.400;2023-02-04T04:38:34;5.60;;;4.30;;
32196;SDS011;18697;42.770;23.400;2023-02-04T04:40:59;6.40;;;4.07;;
32196;SDS011;18697;42.770;23.400;2023-02-04T04:43:25;5.43;;;4.07;;
32196;SDS011;18697;42.770;23.400;2023-02-04T04:45:51;5.25;;;4.47;;
32196;SDS011;18697;42.770;23.400;2023-02-04T04:48:16;8.75;;;4.57;;
32196;SDS011;18697;42.770;23.400;2023-02-04T04:50:42;10.23;;;4.15;;
32196;SDS011;18697;42.770;23.400;2023-02-04T04:53:07;4.97;;;4.30;;
32196;SDS011;18697;42.770;23.400;2023-02-04T04:55:35;5.63;;;3.60;;
32196;SDS011;18697;42.770;23.400;2023-02-04T04:58:02;5.72;;;3.58;;
32196;SDS011;18697;42.770;23.400;2023-02-04T05:00:28;6.28;;;3.30;;
32196;SDS011;18697;42.770;23.400;2023-02-04T05:02:53;7.50;;;3.85;;
32196;SDS011;18697;42.770;23.400;2023-02-04T05:05:19;7.85;;;4.00;;
32196;SDS011;18697;42.770;23.400;2023-02-04T05:07:44;6.93;;;4.70;;
32196;SDS011;18697;42.770;23.400;2023-02-04T05:10:10;6.00;;;4.70;;
32196;SDS011;18697;42.770;23.400;2023-02-04T05:12:35;7.20;;;5.03;;
32196;SDS011;18697;42.770;23.400;2023-02-04T05:15:00;13.07;;;5.03;;
32196;SDS011;18697;42.770;23.400;2023-02-04T05:17:26;10.52;;;6.47;;
32196;SDS011;18697;42.770;23.400;2023-02-04T05:19:51;7.25;;;5.20;;
32196;SDS011;18697;42.770;23.400;2023-02-04T05:22:17;11.13;;;5.45;;
32196;SDS011;18697;42.770;23.400;2023-02-04T05:24:42;11.70;;;5.32;;
32196;SDS011;18697;42.770;23.400;2023-02-04T05:27:07;8.68;;;4.75;;
32196;SDS011;18697;42.770;23.400;2023-02-04T05:29:32;11.30;;;5.35;;
32196;SDS011;18697;42.770;23.400;2023-02-04T05:31:58;7.60;;;5.43;;
32196;SDS011;18697;42.770;23.400;2023-02-04T05:34:23;9.25;;;5.65;;
32196;SDS011;18697;42.770;23.400;2023-02-04T05:36:49;11.32;;;5.95;;
32196;SDS011;18697;42.770;23.400;2023-02-04T05:39:14;12.55;;;5.93;;
32196;SDS011;18697;42.770;23.400;2023-02-04T05:41:39;9.38;;;5.40;;
32196;SDS011;18697;42.770;23.400;2023-02-04T05:44:05;9.73;;;5.72;;
32196;SDS011;18697;42.770;23.400;2023-02-04T05:46:30;6.70;;;4.72;;
32196;SDS011;18697;42.770;23.400;2023-02-04T05:48:56;6.18;;;4.70;;
32196;SDS011;18697;42.770;23.400;2023-02-04T05:51:21;8.38;;;4.53;;
32196;SDS011;18697;42.770;23.400;2023-02-04T05:53:46;7.85;;;5.00;;
32196;SDS011;18697;42.770;23.400;2023-02-04T05:56:12;7.28;;;5.22;;
32196;SDS011;18697;42.770;23.400;2023-02-04T05:58:37;5.57;;;4.43;;
32196;SDS011;18697;42.770;23.400;2023-02-04T06:01:02;6.45;;;4.20;;
32196;SDS011;18697;42.770;23.400;2023-02-04T06:03:29;4.68;;;3.55;;
32196;SDS011;18697;42.770;23.400;2023-02-04T06:05:55;4.20;;;3.60;;
32196;SDS011;18697;42.770;23.400;2023-02-04T06:08:21;5.60;;;3.60;;
32196;SDS011;18697;42.770;23.400;2023-02-04T06:10:46;6.30;;;4.05;;
32196;SDS011;18697;42.770;23.400;2023-02-04T06:13:12;7.07;;;4.28;;
32196;SDS011;18697;42.770;23.400;2023-02-04T06:15:37;7.22;;;5.45;;
32196;SDS011;18697;42.770;23.400;2023-02-04T06:18:02;13.32;;;8.77;;
32196;SDS011;18697;42.770;23.400;2023-02-04T06:20:28;16.55;;;10.15;;
32196;SDS011;18697;42.770;23.400;2023-02-04T06:22:53;16.63;;;13.25;;
32196;SDS011;18697;42.770;23.400;2023-02-04T06:25:19;8.55;;;7.40;;
32196;SDS011;18697;42.770;23.400;2023-02-04T06:27:45;11.05;;;8.63;;
32196;SDS011;18697;42.770;23.400;2023-02-04T06:30:11;8.18;;;5.43;;
32196;SDS011;18697;42.770;23.400;2023-02-04T06:32:36;6.95;;;4.38;;
32196;SDS011;18697;42.770;23.400;2023-02-04T06:35:02;6.60;;;4.65;;
32196;SDS011;18697;42.770;23.400;2023-02-04T06:37:27;11.25;;;6.57;;
32196;SDS011;18697;42.770;23.400;2023-02-04T06:39:52;9.70;;;5.65;;
32196;SDS011;18697;42.770;23.400;2023-02-04T06:42:18;17.33;;;10.60;;
32196;SDS011;18697;42.770;23.400;2023-02-04T06:44:44;19.15;;;12.68;;
32196;SDS011;18697;42.770;23.400;2023-02-04T06:47:10;4.25;;;3.10;;
32196;SDS011;18697;42.770;23.400;2023-02-04T06:49:35;6.20;;;4.25;;
32196;SDS011;18697;42.770;23.400;2023-02-04T06:54:26;4.50;;;2.95;;
32196;SDS011;18697;42.770;23.400;2023-02-04T06:59:16;5.40;;;3.50;;
32196;SDS011;18697;42.770;23.400;2023-02-04T07:04:07;7.20;;;3.30;;
32196;SDS011;18697;42.770;23.400;2023-02-04T07:06:32;7.00;;;4.05;;
32196;SDS011;18697;42.770;23.400;2023-02-04T07:08:58;9.43;;;5.80;;
32196;SDS011;18697;42.770;23.400;2023-02-04T07:11:23;5.90;;;3.90;;
32196;SDS011;18697;42.770;23.400;2023-02-04T07:13:48;6.70;;;4.60;;
32196;SDS011;18697;42.770;23.400;2023-02-04T07:16:14;7.95;;;4.63;;
32196;SDS011;18697;42.770;23.400;2023-02-04T07:21:04;12.20;;;4.97;;
32196;SDS011;18697;42.770;23.400;2023-02-04T07:23:30;9.18;;;4.88;;
32196;SDS011;18697;42.770;23.400;2023-02-04T07:25:55;8.65;;;4.88;;
32196;SDS011;18697;42.770;23.400;2023-02-04T07:28:23;6.60;;;4.30;;
32196;SDS011;18697;42.770;23.400;2023-02-04T07:33:14;5.93;;;4.05;;
32196;SDS011;18697;42.770;23.400;2023-02-04T07:35:39;7.00;;;4.35;;
32196;SDS011;18697;42.770;23.400;2023-02-04T07:38:05;21.23;;;10.73;;
32196;SDS011;18697;42.770;23.400;2023-02-04T07:40:30;12.30;;;5.57;;
32196;SDS011;18697;42.770;23.400;2023-02-04T07:42:56;23.88;;;10.75;;
32196;SDS011;18697;42.770;23.400;2023-02-04T07:45:21;33.70;;;14.23;;
32196;SDS011;18697;42.770;23.400;2023-02-04T07:47:47;26.40;;;10.50;;
32196;SDS011;18697;42.770;23.400;2023-02-04T07:50:12;30.15;;;13.63;;
32196;SDS011;18697;42.770;23.400;2023-02-04T07:52:38;5.82;;;3.97;;
32196;SDS011;18697;42.770;23.400;2023-02-04T07:55:04;5.10;;;2.83;;
32196;SDS011;18697;42.770;23.400;2023-02-04T07:57:30;6.18;;;2.97;;
32196;SDS011;18697;42.770;23.400;2023-02-04T07:59:55;5.10;;;3.35;;
32196;SDS011;18697;42.770;23.400;2023-02-04T08:02:21;6.50;;;3.22;;
32196;SDS011;18697;42.770;23.400;2023-02-04T08:04:46;2.97;;;2.70;;
32196;SDS011;18697;42.770;23.400;2023-02-04T08:07:12;5.68;;;2.78;;
32196;SDS011;18697;42.770;23.400;2023-02-04T08:09:38;5.43;;;3.88;;
32196;SDS011;18697;42.770;23.400;2023-02-04T08:12:03;3.28;;;2.97;;
32196;SDS011;18697;42.770;23.400;2023-02-04T08:14:29;2.72;;;2.53;;
32196;SDS011;18697;42.770;23.400;2023-02-04T08:16:54;4.22;;;2.80;;
32196;SDS011;18697;42.770;23.400;2023-02-04T08:19:19;3.47;;;2.70;;
32196;SDS011;18697;42.770;23.400;2023-02-04T08:21:45;4.07;;;2.83;;
32196;SDS011;18697;42.770;23.400;2023-02-04T08:24:12;5.15;;;2.80;;
32196;SDS011;18697;42.770;23.400;2023-02-04T08:26:38;5.13;;;3.22;;
32196;SDS011;18697;42.770;23.400;2023-02-04T08:29:05;6.78;;;3.10;;
32196;SDS011;18697;42.770;23.400;2023-02-04T08:31:31;3.60;;;3.30;;
32196;SDS011;18697;42.770;23.400;2023-02-04T08:33:56;4.65;;;3.22;;
32196;SDS011;18697;42.770;23.400;2023-02-04T08:36:22;4.13;;;3.08;;
32196;SDS011;18697;42.770;23.400;2023-02-04T08:38:47;6.28;;;4.60;;
32196;SDS011;18697;42.770;23.400;2023-02-04T08:41:13;5.47;;;3.65;;
32196;SDS011;18697;42.770;23.400;2023-02-04T08:43:38;3.00;;;2.33;;
32196;SDS011;18697;42.770;23.400;2023-02-04T08:46:04;3.03;;;2.42;;
32196;SDS011;18697;42.770;23.400;2023-02-04T08:48:29;4.13;;;2.38;;
32196;SDS011;18697;42.770;23.400;2023-02-04T08:50:55;2.90;;;2.70;;
32196;SDS011;18697;42.770;23.400;2023-02-04T08:53:20;4.70;;;3.38;;
32196;SDS011;18697;42.770;23.400;2023-02-04T08:55:46;2.83;;;2.63;;
32196;SDS011;18697;42.770;23.400;2023-02-04T08:58:11;6.18;;;3.03;;
32196;SDS011;18697;42.770;23.400;2023-02-04T09:00:36;19.60;;;7.50;;
32196;SDS011;18697;42.770;23.400;2023-02-04T09:03:02;7.85;;;5.18;;
32196;SDS011;18697;42.770;23.400;2023-02-04T09:05:27;5.15;;;3.45;;
32196;SDS011;18697;42.770;23.400;2023-02-04T09:07:52;7.00;;;3.75;;
32196;SDS011;18697;42.770;23.400;2023-02-04T09:10:18;8.18;;;3.85;;
32196;SDS011;18697;42.770;23.400;2023-02-04T09:12:43;4.28;;;3.65;;
32196;SDS011;18697;42.770;23.400;2023-02-04T09:15:10;2.30;;;2.10;;
32196;SDS011;18697;42.770;23.400;2023-02-04T09:17:36;2.38;;;2.17;;
32196;SDS011;18697;42.770;23.400;2023-02-04T09:20:03;4.60;;;2.30;;
32196;SDS011;18697;42.770;23.400;2023-02-04T09:22:28;6.18;;;2.28;;
32196;SDS011;18697;42.770;23.400;2023-02-04T09:24:54;4.18;;;2.33;;
32196;SDS011;18697;42.770;23.400;2023-02-04T09:27:20;2.50;;;2.30;;
32196;SDS011;18697;42.770;23.400;2023-02-04T09:29:45;4.93;;;3.10;;
32196;SDS011;18697;42.770;23.400;2023-02-04T09:32:11;3.45;;;2.88;;
32196;SDS011;18697;42.770;23.400;2023-02-04T09:34:36;3.83;;;3.05;;
32196;SDS011;18697;42.770;23.400;2023-02-04T09:37:01;4.30;;;3.40;;
32196;SDS011;18697;42.770;23.400;2023-02-04T09:39:27;4.82;;;3.15;;
32196;SDS011;18697;42.770;23.400;2023-02-04T09:41:52;3.80;;;3.50;;
32196;SDS011;18697;42.770;23.400;2023-02-04T09:44:19;4.47;;;3.50;;
32196;SDS011;18697;42.770;23.400;2023-02-04T09:46:50;3.13;;;2.60;;
32196;SDS011;18697;42.770;23.400;2023-02-04T09:49:23;3.75;;;3.08;;
32196;SDS011;18697;42.770;23.400;2023-02-04T09:51:49;4.97;;;2.85;;
32196;SDS011;18697;42.770;23.400;2023-02-04T09:54:18;3.42;;;3.13;;
32196;SDS011;18697;42.770;23.400;2023-02-04T09:56:45;3.30;;;2.95;;
32196;SDS011;18697;42.770;23.400;2023-02-04T09:59:13;4.68;;;3.55;;
32196;SDS011;18697;42.770;23.400;2023-02-04T10:01:39;6.55;;;3.00;;
32196;SDS011;18697;42.770;23.400;2023-02-04T10:04:04;3.42;;;2.67;;
32196;SDS011;18697;42.770;23.400;2023-02-04T10:06:33;5.10;;;4.05;;
32196;SDS011;18697;42.770;23.400;2023-02-04T10:08:59;3.95;;;3.30;;
32196;SDS011;18697;42.770;23.400;2023-02-04T10:11:25;3.75;;;3.35;;
32196;SDS011;18697;42.770;23.400;2023-02-04T10:13:52;4.93;;;3.72;;
32196;SDS011;18697;42.770;23.400;2023-02-04T10:16:21;4.57;;;3.72;;
32196;SDS011;18697;42.770;23.400;2023-02-04T10:18:54;4.22;;;3.83;;
32196;SDS011;18697;42.770;23.400;2023-02-04T10:21:26;6.35;;;4.25;;
32196;SDS011;18697;42.770;23.400;2023-02-04T10:23:54;5.57;;;5.07;;
32196;SDS011;18697;42.770;23.400;2023-02-04T10:26:21;2.80;;;2.33;;
32196;SDS011;18697;42.770;23.400;2023-02-04T10:28:48;3.03;;;2.47;;
32196;SDS011;18697;42.770;23.400;2023-02-04T10:31:26;9.68;;;5.15;;
32196;SDS011;18697;42.770;23.400;2023-02-04T10:34:04;5.78;;;3.65;;
32196;SDS011;18697;42.770;23.400;2023-02-04T10:36:29;11.90;;;5.30;;
32196;SDS011;18697;42.770;23.400;2023-02-04T10:38:59;11.65;;;5.05;;
32196;SDS011;18697;42.770;23.400;2023-02-04T10:41:28;9.88;;;4.57;;
32196;SDS011;18697;42.770;23.400;2023-02-04T10:44:01;5.95;;;3.30;;
32196;SDS011;18697;42.770;23.400;2023-02-04T10:46:28;8.10;;;4.53;;
32196;SDS011;18697;42.770;23.400;2023-02-04T10:48:55;6.80;;;4.25;;
32196;SDS011;18697;42.770;23.400;2023-02-04T10:51:20;10.85;;;4.95;;
32196;SDS011;18697;42.770;23.400;2023-02-04T10:53:46;4.53;;;3.08;;
32196;SDS011;18697;42.770;23.400;2023-02-04T10:56:29;3.92;;;3.08;;
32196;SDS011;18697;42.770;23.400;2023-02-04T10:58:55;2.10;;;1.95;;
32196;SDS011;18697;42.770;23.400;2023-02-04T11:01:20;2.03;;;1.80;;
32196;SDS011;18697;42.770;23.400;2023-02-04T11:03:46;1.85;;;1.75;;
32196;SDS011;18697;42.770;23.400;2023-02-04T11:06:13;2.40;;;2.20;;
32196;SDS011;18697;42.770;23.400;2023-02-04T11:08:45;2.17;;;1.90;;
32196;SDS011;18697;42.770;23.400;2023-02-04T11:11:19;3.38;;;2.08;;
32196;SDS011;18697;42.770;23.400;2023-02-04T11:16:31;2.78;;;2.13;;
32196;SDS011;18697;42.770;23.400;2023-02-04T11:19:05;2.67;;;2.20;;
32196;SDS011;18697;42.770;23.400;2023-02-04T11:26:35;0.88;;;0.88;;
32196;SDS011;18697;42.770;23.400;2023-02-04T11:44:52;90.32;;;39.58;;
32196;SDS011;18697;42.770;23.400;2023-02-04T11:47:36;70.05;;;45.40;;
32196;SDS011;18697;42.770;23.400;2023-02-04T11:50:03;33.35;;;25.17;;
32196;SDS011;18697;42.770;23.400;2023-02-04T11:52:36;11.70;;;9.00;;
32196;SDS011;18697;42.770;23.400;2023-02-04T11:55:02;6.07;;;5.40;;
32196;SDS011;18697;42.770;23.400;2023-02-04T11:57:28;7.95;;;5.45;;
32196;SDS011;18697;42.770;23.400;2023-02-04T11:59:53;33.25;;;15.55;;
32196;SDS011;18697;42.770;23.400;2023-02-04T12:02:20;24.17;;;14.98;;
32196;SDS011;18697;42.770;23.400;2023-02-04T12:04:51;18.70;;;14.48;;
32196;SDS011;18697;42.770;23.400;2023-02-04T12:07:28;9.75;;;7.70;;
32196;SDS011;18697;42.770;23.400;2023-02-04T12:09:55;9.20;;;7.38;;
32196;SDS011;18697;42.770;23.400;2023-02-04T12:12:22;9.38;;;7.75;;
32196;SDS011;18697;42.770;23.400;2023-02-04T12:15:34;5.65;;;3.80;;
32196;SDS011;18697;42.770;23.400;2023-02-04T12:18:03;7.32;;;4.50;;
32196;SDS011;18697;42.770;23.400;2023-02-04T12:20:31;8.90;;;5.03;;
32196;SDS011;18697;42.770;23.400;2023-02-04T12:22:57;27.67;;;11.32;;
32196;SDS011;18697;42.770;23.400;2023-02-04T12:25:23;16.10;;;7.75;;
32196;SDS011;18697;42.770;23.400;2023-02-04T12:27:48;11.05;;;5.50;;
32196;SDS011;18697;42.770;23.400;2023-02-04T12:30:15;27.38;;;10.60;;
32196;SDS011;18697;42.770;23.400;2023-02-04T12:32:42;10.13;;;5.22;;
32196;SDS011;18697;42.770;23.400;2023-02-04T12:35:08;4.50;;;2.80;;
32196;SDS011;18697;42.770;23.400;2023-02-04T12:37:33;17.80;;;8.13;;
32196;SDS011;18697;42.770;23.400;2023-02-04T12:39:58;13.65;;;7.60;;
32196;SDS011;18697;42.770;23.400;2023-02-04T12:42:24;12.73;;;5.63;;
32196;SDS011;18697;42.770;23.400;2023-02-04T12:44:49;7.20;;;3.40;;
32196;SDS011;18697;42.770;23.400;2023-02-04T12:47:14;8.50;;;4.43;;
32196;SDS011;18697;42.770;23.400;2023-02-04T12:49:40;33.10;;;12.43;;
32196;SDS011;18697;42.770;23.400;2023-02-04T12:52:05;15.68;;;7.38;;
32196;SDS011;18697;42.770;23.400;2023-02-04T12:54:33;20.80;;;9.10;;
32196;SDS011;18697;42.770;23.400;2023-02-04T12:57:04;16.15;;;8.02;;
32196;SDS011;18697;42.770;23.400;2023-02-04T12:59:29;13.05;;;5.88;;
32196;SDS011;18697;42.770;23.400;2023-02-04T13:01:57;14.90;;;6.80;;
32196;SDS011;18697;42.770;23.400;2023-02-04T13:04:30;8.50;;;4.45;;
32196;SDS011;18697;42.770;23.400;2023-02-04T13:06:55;17.10;;;8.13;;
32196;SDS011;18697;42.770;23.400;2023-02-04T13:09:21;32.80;;;13.82;;
32196;SDS011;18697;42.770;23.400;2023-02-04T13:11:46;26.20;;;12.77;;
32196;SDS011;18697;42.770;23.400;2023-02-04T13:14:11;25.65;;;11.05;;
32196;SDS011;18697;42.770;23.400;2023-02-04T13:16:37;3.60;;;3.00;;
32196;SDS011;18697;42.770;23.400;2023-02-04T13:19:02;31.75;;;12.95;;
32196;SDS011;18697;42.770;23.400;2023-02-04T13:21:27;16.73;;;8.63;;
32196;SDS011;18697;42.770;23.400;2023-02-04T13:23:53;29.95;;;12.35;;
32196;SDS011;18697;42.770;23.400;2023-02-04T13:26:18;26.20;;;10.68;;
32196;SDS011;18697;42.770;23.400;2023-02-04T13:28:44;29.88;;;12.27;;
32196;SDS011;18697;42.770;23.400;2023-02-04T13:31:09;60.17;;;21.55;;
32196;SDS011;18697;42.770;23.400;2023-02-04T13:33:35;53.63;;;18.52;;
32196;SDS011;18697;42.770;23.400;2023-02-04T13:36:01;53.47;;;19.70;;
32196;SDS011;18697;42.770;23.400;2023-02-04T13:38:26;79.22;;;28.17;;
32196;SDS011;18697;42.770;23.400;2023-02-04T13:40:52;98.57;;;34.17;;
32196;SDS011;18697;42.770;23.400;2023-02-04T13:43:17;43.05;;;14.90;;
32196;SDS011;18697;42.770;23.400;2023-02-04T13:45:43;62.55;;;22.50;;
32196;SDS011;18697;42.770;23.400;2023-02-04T13:48:11;33.78;;;14.05;;
32196;SDS011;18697;42.770;23.400;2023-02-04T13:50:37;127.45;;;52.33;;
32196;SDS011;18697;42.770;23.400;2023-02-04T13:53:02;91.80;;;37.10;;
32196;SDS011;18697;42.770;23.400;2023-02-04T13:55:28;105.63;;;37.72;;
32196;SDS011;18697;42.770;23.400;2023-02-04T13:57:53;66.45;;;27.88;;
32196;SDS011;18697;42.770;23.400;2023-02-04T14:00:19;110.28;;;43.95;;
32196;SDS011;18697;42.770;23.400;2023-02-04T14:02:44;60.30;;;24.85;;
32196;SDS011;18697;42.770;23.400;2023-02-04T14:05:10;54.45;;;16.55;;
32196;SDS011;18697;42.770;23.400;2023-02-04T14:07:35;70.47;;;21.10;;
32196;SDS011;18697;42.770;23.400;2023-02-04T14:10:01;93.22;;;27.55;;
32196;SDS011;18697;42.770;23.400;2023-02-04T14:12:26;71.78;;;23.30;;
32196;SDS011;18697;42.770;23.400;2023-02-04T14:14:52;81.75;;;27.25;;
32196;SDS011;18697;42.770;23.400;2023-02-04T14:17:17;76.38;;;23.70;;
32196;SDS011;18697;42.770;23.400;2023-02-04T14:19:42;81.13;;;27.10;;
32196;SDS011;18697;42.770;23.400;2023-02-04T14:22:08;49.92;;;19.08;;
32196;SDS011;18697;42.770;23.400;2023-02-04T14:24:35;41.47;;;15.57;;
32196;SDS011;18697;42.770;23.400;2023-02-04T14:27:00;83.50;;;28.65;;
32196;SDS011;18697;42.770;23.400;2023-02-04T14:29:31;70.72;;;26.38;;
32196;SDS011;18697;42.770;23.400;2023-02-04T14:31:56;68.93;;;24.10;;
32196;SDS011;18697;42.770;23.400;2023-02-04T14:34:22;69.90;;;23.83;;
32196;SDS011;18697;42.770;23.400;2023-02-04T14:36:47;126.80;;;48.72;;
32196;SDS011;18697;42.770;23.400;2023-02-04T14:39:12;30.13;;;13.63;;
32196;SDS011;18697;42.770;23.400;2023-02-04T14:41:38;42.65;;;17.70;;
32196;SDS011;18697;42.770;23.400;2023-02-04T14:44:04;45.35;;;19.15;;
32196;SDS011;18697;42.770;23.400;2023-02-04T14:46:30;96.10;;;39.65;;
32196;SDS011;18697;42.770;23.400;2023-02-04T14:48:55;99.60;;;38.70;;
32196;SDS011;18697;42.770;23.400;2023-02-04T14:51:20;66.65;;;25.63;;
32196;SDS011;18697;42.770;23.400;2023-02-04T14:53:46;68.65;;;27.85;;
32196;SDS011;18697;42.770;23.400;2023-02-04T14:56:12;147.70;;;57.65;;
32196;SDS011;18697;42.770;23.400;2023-02-04T14:58:37;89.28;;;38.00;;
32196;SDS011;18697;42.770;23.400;2023-02-04T15:01:03;133.63;;;54.67;;